Ashton, Missouri
Current Conditions -  °F | °C
As of 11:15 PM on Wednesday 26 Nov 2014 (Local Time) from KEOK Reporting Station
NA  
Wind Chill: 20°   Ceiling: NA
Heat Index: 27°   Visibility: NA
Dew Point: 25°   Wind: 6mph
Humidity: 93%   Direction: 20°NNE
Pressure: 30.27"   Gusts: NA
Location:  40.513°N, 91.8882°W
Report Text: KEOK 270515Z AUTO 02005KT M03/M04 A3027 RMK AO2
Loading
Personal Weather Stations






























Interactive Weather Map New forecast layout! Learn more

10-Day Weather Forecast

Advertisements
Track Severe Weather on mobile